Time;durP1;ratioP1;P1;durP2;ratioP2;P2;SDS_P1;SDS_P2;PMS_P1;PMS_P2;Temp;Humidity;BMP_temperature;BMP_pressure;BME280_temperature;BME280_humidity;BME280_pressure;Samples;Min_cycle;Max_cycle;Signal;HPM_P1;HPM_P2
2023/09/28 00:02:54;;;;;;;8.00;6.00;;;17.90;99.90;;;;;;5075365;28;20049;-75
2023/09/28 00:05:20;;;;;;;8.18;6.13;;;17.90;99.90;;;;;;5075170;28;20041;-75
2023/09/28 00:07:47;;;;;;;6.72;5.55;;;17.90;99.90;;;;;;5074281;28;20052;-75
2023/09/28 00:10:15;;;;;;;7.57;5.25;;;17.90;99.90;;;;;;5074369;28;20056;-75
2023/09/28 00:12:49;;;;;;;7.53;6.15;;;17.90;99.90;;;;;;5073312;28;20084;-76
2023/09/28 00:15:15;;;;;;;6.93;5.80;;;18.00;99.90;;;;;;5074384;28;20135;-75
2023/09/28 00:17:41;;;;;;;9.18;5.85;;;18.00;99.90;;;;;;5074399;28;20047;-76
2023/09/28 00:20:12;;;;;;;8.20;5.70;;;18.00;99.90;;;;;;5073947;28;20044;-75
2023/09/28 00:22:38;;;;;;;7.80;5.55;;;18.00;99.90;;;;;;5073308;28;20044;-75
2023/09/28 00:25:09;;;;;;;6.90;5.10;;;18.00;99.90;;;;;;5074407;28;20067;-76
2023/09/28 00:27:35;;;;;;;7.43;5.78;;;18.00;99.90;;;;;;5073499;28;20110;-75
2023/09/28 00:30:03;;;;;;;7.55;5.53;;;18.00;99.90;;;;;;5074707;28;20049;-75
2023/09/28 00:32:29;;;;;;;7.00;5.65;;;18.00;99.90;;;;;;5074020;28;20041;-75
2023/09/28 00:34:55;;;;;;;7.15;5.85;;;18.00;99.90;;;;;;5057316;28;20373;-75
2023/09/28 00:37:20;;;;;;;7.90;6.30;;;18.00;99.90;;;;;;5073801;28;20139;-75
2023/09/28 00:39:48;;;;;;;7.40;6.22;;;18.00;99.90;;;;;;5074467;28;20095;-75
2023/09/28 00:42:14;;;;;;;6.70;5.65;;;18.00;99.90;;;;;;5074482;28;20389;-75
2023/09/28 00:44:40;;;;;;;7.30;5.93;;;18.00;99.90;;;;;;5073774;28;20043;-75
2023/09/28 00:47:05;;;;;;;7.78;5.88;;;17.90;99.90;;;;;;5073958;28;20084;-75
2023/09/28 00:49:31;;;;;;;7.13;6.00;;;17.90;99.90;;;;;;5073764;28;20048;-76
2023/09/28 00:51:57;;;;;;;7.97;5.72;;;17.90;99.90;;;;;;5073289;28;20047;-75
2023/09/28 00:54:23;;;;;;;6.45;5.43;;;17.90;99.90;;;;;;5073948;28;20131;-76
2023/09/28 00:56:49;;;;;;;7.35;5.72;;;17.90;99.90;;;;;;5073831;28;20080;-75
2023/09/28 00:59:15;;;;;;;8.05;5.57;;;17.90;99.90;;;;;;5073622;28;20431;-76
2023/09/28 01:01:42;;;;;;;7.30;5.47;;;17.90;99.90;;;;;;5072487;28;20115;-75
2023/09/28 01:04:10;;;;;;;8.18;5.60;;;17.90;99.90;;;;;;5073873;28;20055;-75
2023/09/28 01:06:36;;;;;;;6.55;5.43;;;17.90;99.90;;;;;;5074246;28;20044;-75
2023/09/28 01:09:07;;;;;;;6.65;5.60;;;17.90;99.90;;;;;;5073694;28;20052;-75
2023/09/28 01:11:33;;;;;;;6.78;5.40;;;17.90;99.90;;;;;;5074441;28;20347;-75
2023/09/28 01:14:00;;;;;;;5.82;5.13;;;17.90;99.90;;;;;;5073572;28;20051;-75
2023/09/28 01:16:26;;;;;;;5.95;4.88;;;17.90;99.90;;;;;;5073819;28;20114;-75
2023/09/28 01:18:52;;;;;;;6.38;5.13;;;17.90;99.90;;;;;;5073511;28;20049;-75
2023/09/28 01:21:18;;;;;;;7.65;5.00;;;17.90;99.90;;;;;;5072174;28;20397;-75
2023/09/28 01:23:45;;;;;;;7.57;4.85;;;17.80;99.90;;;;;;5073502;28;20052;-76
2023/09/28 01:26:11;;;;;;;5.95;5.10;;;17.90;99.90;;;;;;5073482;28;20052;-76
2023/09/28 01:28:38;;;;;;;6.35;4.82;;;17.80;99.90;;;;;;5072791;28;20098;-75
2023/09/28 01:31:04;;;;;;;5.68;5.07;;;17.90;99.90;;;;;;5072466;28;20056;-75
2023/09/28 01:33:30;;;;;;;9.25;4.88;;;17.90;99.90;;;;;;5073321;28;20045;-75
2023/09/28 01:35:56;;;;;;;5.93;4.50;;;18.00;99.90;;;;;;5073327;28;20045;-75
2023/09/28 01:38:47;;;;;;;5.75;5.15;;;18.00;99.90;;;;;;5073153;28;20109;-74
2023/09/28 01:41:12;;;;;;;7.43;4.70;;;18.00;99.90;;;;;;5073221;28;20104;-75
2023/09/28 01:43:38;;;;;;;4.70;4.10;;;18.00;99.90;;;;;;5073280;28;20040;-75
2023/09/28 01:46:04;;;;;;;5.90;4.75;;;18.00;99.90;;;;;;5073225;28;20052;-75
2023/09/28 01:48:29;;;;;;;6.15;4.43;;;18.00;99.90;;;;;;5073284;28;20040;-75
2023/09/28 01:50:55;;;;;;;7.20;4.45;;;18.00;99.90;;;;;;5072927;28;20393;-75
2023/09/28 01:53:21;;;;;;;5.72;4.25;;;18.00;99.90;;;;;;5071993;28;20052;-75
2023/09/28 01:55:47;;;;;;;4.88;4.13;;;17.90;99.90;;;;;;5073238;28;20085;-76
2023/09/28 01:58:13;;;;;;;6.53;4.30;;;18.00;99.90;;;;;;5072258;28;20128;-76
2023/09/28 02:00:40;;;;;;;5.97;4.40;;;18.00;99.90;;;;;;5072127;28;20128;-74
2023/09/28 02:03:08;;;;;;;5.15;3.95;;;18.00;99.90;;;;;;5073225;28;20037;-75
2023/09/28 02:05:34;;;;;;;5.70;4.15;;;18.00;99.90;;;;;;5072910;28;20127;-74
2023/09/28 02:08:02;;;;;;;5.13;3.95;;;18.00;99.90;;;;;;5072986;28;20435;-74
2023/09/28 02:10:28;;;;;;;5.22;3.58;;;18.10;99.90;;;;;;5073641;28;20080;-75
2023/09/28 02:12:55;;;;;;;5.00;3.83;;;18.10;99.90;;;;;;5071798;28;20121;-75
2023/09/28 02:15:22;;;;;;;6.63;3.95;;;18.10;99.90;;;;;;5073077;28;20131;-76
2023/09/28 02:17:49;;;;;;;6.55;4.05;;;18.10;99.90;;;;;;5072886;28;20045;-74
2023/09/28 02:20:16;;;;;;;3.92;3.50;;;18.20;99.90;;;;;;5073607;28;20080;-74
2023/09/28 02:22:46;;;;;;;5.20;3.85;;;18.10;99.90;;;;;;5071902;28;20045;-74
2023/09/28 02:25:15;;;;;;;5.97;3.88;;;18.10;99.90;;;;;;5073816;28;20049;-75
2023/09/28 02:27:42;;;;;;;5.68;3.60;;;18.10;99.90;;;;;;5072980;28;20048;-75
2023/09/28 02:30:11;;;;;;;5.65;3.78;;;18.10;99.90;;;;;;5074467;28;20048;-74
2023/09/28 02:32:39;;;;;;;5.25;3.83;;;18.00;99.90;;;;;;5076406;28;20048;-74
2023/09/28 02:35:07;;;;;;;5.32;3.95;;;18.00;99.90;;;;;;5076371;28;20056;-75
2023/09/28 02:37:34;;;;;;;4.90;3.85;;;18.00;99.90;;;;;;5076245;28;20060;-74
2023/09/28 02:40:00;;;;;;;5.63;3.85;;;17.90;99.90;;;;;;5074958;28;20044;-74
2023/09/28 02:42:25;;;;;;;4.50;3.97;;;17.90;99.90;;;;;;5076540;28;20102;-74
2023/09/28 02:44:51;;;;;;;5.75;4.20;;;17.90;99.90;;;;;;5076775;28;20541;-75
2023/09/28 02:47:17;;;;;;;5.80;4.38;;;17.80;99.90;;;;;;5076680;28;20354;-75
2023/09/28 02:49:43;;;;;;;5.18;3.97;;;17.80;99.90;;;;;;5076088;28;20071;-74
2023/09/28 02:52:10;;;;;;;5.90;4.18;;;17.80;99.90;;;;;;5076470;28;20376;-75
2023/09/28 02:54:36;;;;;;;6.07;4.00;;;17.70;99.90;;;;;;5075744;28;20505;-76
2023/09/28 02:57:01;;;;;;;4.45;3.78;;;17.70;99.90;;;;;;5075956;28;20055;-75
2023/09/28 02:59:27;;;;;;;4.53;3.90;;;17.50;99.90;;;;;;5075957;28;20566;-75
2023/09/28 03:01:53;;;;;;;4.95;4.15;;;17.40;99.90;;;;;;5075842;28;20469;-74
2023/09/28 03:04:19;;;;;;;5.13;4.15;;;17.40;99.90;;;;;;5075081;28;20049;-74
2023/09/28 03:06:46;;;;;;;5.95;4.10;;;17.30;99.90;;;;;;5075784;28;20051;-74
2023/09/28 03:09:12;;;;;;;4.70;4.03;;;17.30;99.90;;;;;;5075671;28;20052;-75
2023/09/28 03:11:41;;;;;;;6.03;4.00;;;17.20;99.90;;;;;;5075573;28;20033;-76
2023/09/28 03:14:07;;;;;;;5.50;4.18;;;17.20;99.90;;;;;;5076419;28;20044;-74
2023/09/28 03:16:33;;;;;;;6.47;4.70;;;17.40;99.90;;;;;;5075585;28;20084;-75
2023/09/28 03:19:00;;;;;;;4.90;4.00;;;17.40;99.90;;;;;;5075651;28;20113;-75
2023/09/28 03:21:27;;;;;;;5.80;4.50;;;17.40;99.90;;;;;;5075461;28;20051;-73
2023/09/28 03:23:53;;;;;;;5.35;4.35;;;17.40;99.90;;;;;;5075452;28;20102;-74
2023/09/28 03:26:18;;;;;;;5.13;3.80;;;17.30;99.90;;;;;;5075132;28;20052;-74
2023/09/28 03:28:44;;;;;;;4.70;4.00;;;17.30;99.90;;;;;;5075985;28;20044;-74
2023/09/28 03:31:11;;;;;;;5.43;4.43;;;17.20;99.90;;;;;;5075343;28;20474;-75
2023/09/28 03:33:37;;;;;;;7.85;4.25;;;17.20;99.90;;;;;;5075263;28;20127;-74
2023/09/28 03:36:03;;;;;;;5.90;4.40;;;17.20;99.90;;;;;;5075692;28;20079;-74
2023/09/28 03:38:29;;;;;;;6.72;4.82;;;17.10;99.90;;;;;;5075567;28;20067;-75
2023/09/28 03:40:56;;;;;;;5.70;4.72;;;17.10;99.90;;;;;;5074988;28;20119;-75
2023/09/28 03:43:21;;;;;;;7.30;4.50;;;17.00;99.90;;;;;;5057416;28;20048;-74
2023/09/28 03:45:47;;;;;;;7.38;4.47;;;17.10;99.90;;;;;;5075050;28;20086;-74
2023/09/28 03:48:12;;;;;;;6.20;4.55;;;17.10;99.90;;;;;;5074924;28;20131;-75
2023/09/28 03:50:39;;;;;;;5.53;4.15;;;17.00;99.90;;;;;;5075476;28;20059;-74
2023/09/28 03:53:05;;;;;;;6.30;4.40;;;17.00;99.90;;;;;;5074884;28;20161;-74
2023/09/28 03:55:31;;;;;;;5.93;4.20;;;17.00;99.90;;;;;;5075471;28;20052;-75
2023/09/28 03:58:02;;;;;;;7.40;4.20;;;17.00;99.90;;;;;;5074931;28;20127;-76
2023/09/28 04:00:28;;;;;;;5.28;4.22;;;16.90;99.90;;;;;;5075634;28;20507;-75
2023/09/28 04:02:54;;;;;;;5.93;4.32;;;16.80;99.90;;;;;;5074980;28;20405;-75
2023/09/28 04:05:20;;;;;;;5.13;4.40;;;16.80;99.90;;;;;;5074587;28;20485;-74
2023/09/28 04:07:46;;;;;;;5.80;4.32;;;16.80;99.90;;;;;;5074414;28;20044;-74
2023/09/28 04:10:12;;;;;;;5.70;4.20;;;16.80;99.90;;;;;;5074573;28;20059;-75
2023/09/28 04:12:38;;;;;;;5.70;4.40;;;16.80;99.90;;;;;;5074903;28;20041;-74
2023/09/28 04:15:05;;;;;;;5.50;4.20;;;16.80;99.90;;;;;;5074501;28;20051;-74
2023/09/28 04:17:31;;;;;;;5.93;4.68;;;16.80;99.90;;;;;;5074460;28;20056;-74
2023/09/28 04:19:56;;;;;;;6.13;4.55;;;16.70;99.90;;;;;;5074371;28;20389;-74
2023/09/28 04:22:22;;;;;;;5.95;4.20;;;16.70;99.90;;;;;;5074254;28;20063;-75
2023/09/28 04:24:47;;;;;;;5.13;4.57;;;16.70;99.90;;;;;;5073885;28;20117;-74
2023/09/28 04:27:13;;;;;;;6.38;4.50;;;16.60;99.90;;;;;;5073865;28;20123;-74
2023/09/28 04:29:39;;;;;;;6.30;4.22;;;16.60;99.90;;;;;;5073982;28;20099;-74
2023/09/28 04:32:05;;;;;;;6.18;4.35;;;16.50;99.90;;;;;;5074469;28;20037;-75
2023/09/28 04:34:31;;;;;;;5.18;4.20;;;16.60;99.90;;;;;;5074189;28;20102;-75
2023/09/28 04:36:57;;;;;;;5.68;4.35;;;16.60;99.90;;;;;;5074408;28;20389;-75
2023/09/28 04:39:24;;;;;;;5.60;4.20;;;16.70;99.90;;;;;;5074717;28;20131;-76
2023/09/28 04:41:54;;;;;;;5.53;4.55;;;16.60;99.90;;;;;;5072992;28;20127;-75
2023/09/28 04:44:21;;;;;;;7.45;4.97;;;16.70;99.90;;;;;;5073633;28;20512;-75
2023/09/28 04:46:50;;;;;;;5.53;4.40;;;16.60;99.90;;;;;;5073947;28;20461;-75
2023/09/28 04:49:16;;;;;;;6.82;4.93;;;16.70;99.90;;;;;;5073847;28;20434;-74
2023/09/28 04:51:42;;;;;;;5.82;4.65;;;16.60;99.90;;;;;;5073922;28;20060;-76
2023/09/28 04:54:07;;;;;;;6.70;4.95;;;16.60;99.90;;;;;;5073482;28;20474;-76
2023/09/28 04:56:33;;;;;;;6.15;4.97;;;16.60;99.90;;;;;;5073811;28;20109;-76
2023/09/28 04:59:02;;;;;;;6.18;4.68;;;16.70;99.90;;;;;;5056881;28;20040;-75
2023/09/28 05:01:28;;;;;;;5.93;5.03;;;16.70;99.90;;;;;;5073438;28;20485;-74
2023/09/28 05:03:54;;;;;;;7.85;5.28;;;16.70;99.90;;;;;;5073007;28;20041;-75
2023/09/28 05:06:20;;;;;;;6.75;5.05;;;16.70;99.90;;;;;;5073726;28;20131;-76
2023/09/28 05:08:46;;;;;;;7.97;5.15;;;16.80;99.90;;;;;;5073716;28;20048;-75
2023/09/28 05:11:11;;;;;;;6.70;5.38;;;16.70;99.90;;;;;;5073546;28;20131;-75
2023/09/28 05:13:37;;;;;;;7.18;5.18;;;16.70;99.90;;;;;;5072299;28;20139;-76
2023/09/28 05:16:03;;;;;;;6.65;5.28;;;16.70;99.90;;;;;;5073824;28;20124;-75
2023/09/28 05:18:32;;;;;;;6.70;5.05;;;16.70;99.90;;;;;;5073424;28;20055;-75
2023/09/28 05:20:57;;;;;;;6.47;4.93;;;16.60;99.90;;;;;;5074021;28;20393;-75
2023/09/28 05:23:24;;;;;;;6.63;5.13;;;16.60;99.90;;;;;;5073674;28;20047;-75
2023/09/28 05:25:49;;;;;;;6.38;5.05;;;16.60;99.90;;;;;;5073509;28;20044;-75
2023/09/28 05:28:15;;;;;;;6.55;5.85;;;16.60;99.90;;;;;;5073151;28;20051;-74
2023/09/28 05:30:41;;;;;;;6.45;5.10;;;16.60;99.90;;;;;;5072908;28;20479;-75
2023/09/28 05:33:06;;;;;;;6.68;5.50;;;16.50;99.90;;;;;;5073486;28;20398;-76
2023/09/28 05:35:32;;;;;;;5.95;4.70;;;16.50;99.90;;;;;;5073262;28;20044;-75
2023/09/28 05:37:58;;;;;;;6.85;5.28;;;16.60;99.90;;;;;;5073854;28;20048;-75
2023/09/28 05:40:24;;;;;;;6.63;5.05;;;16.50;99.90;;;;;;5073270;28;20056;-74
2023/09/28 05:42:49;;;;;;;6.25;4.63;;;16.50;99.90;;;;;;5073988;28;20048;-75
2023/09/28 05:45:15;;;;;;;6.43;4.53;;;16.50;99.90;;;;;;5072077;28;20040;-74
2023/09/28 05:47:41;;;;;;;7.63;5.07;;;16.50;99.90;;;;;;5073755;28;20381;-75
2023/09/28 05:50:07;;;;;;;6.90;5.03;;;16.40;99.90;;;;;;5073180;28;20045;-75
2023/09/28 05:52:33;;;;;;;6.10;4.75;;;16.40;99.90;;;;;;5073136;28;20051;-75
2023/09/28 05:54:58;;;;;;;6.70;4.60;;;16.40;99.90;;;;;;5073189;28;20473;-75
2023/09/28 05:57:24;;;;;;;5.43;4.53;;;16.50;99.90;;;;;;5073714;28;20049;-75
2023/09/28 05:59:50;;;;;;;6.00;4.32;;;16.40;99.90;;;;;;5073218;28;20090;-76
2023/09/28 06:02:16;;;;;;;6.45;4.40;;;16.40;99.90;;;;;;5073124;28;20053;-75
2023/09/28 06:04:42;;;;;;;7.07;4.40;;;16.40;99.90;;;;;;5074076;28;20127;-75
2023/09/28 06:07:10;;;;;;;6.28;4.28;;;16.40;99.90;;;;;;5076829;28;20102;-75
2023/09/28 06:09:40;;;;;;;6.97;4.47;;;16.40;99.90;;;;;;5077419;28;20080;-75
2023/09/28 06:12:06;;;;;;;5.97;4.00;;;16.40;99.90;;;;;;5076479;28;20550;-75
2023/09/28 06:14:32;;;;;;;5.85;4.10;;;16.50;99.90;;;;;;5075658;28;20056;-68
2023/09/28 06:16:59;;;;;;;5.75;4.53;;;16.50;99.90;;;;;;5076593;28;20076;-69
2023/09/28 06:19:25;;;;;;;7.10;4.57;;;16.50;99.90;;;;;;5077051;28;20397;-69
2023/09/28 06:21:52;;;;;;;5.68;4.35;;;16.40;99.90;;;;;;5076492;28;20047;-69
2023/09/28 06:24:18;;;;;;;7.28;4.40;;;16.50;99.90;;;;;;5077134;28;20056;-69
2023/09/28 06:26:44;;;;;;;8.30;4.43;;;16.50;99.90;;;;;;5077102;28;20058;-69
2023/09/28 06:29:10;;;;;;;5.47;4.38;;;16.40;99.90;;;;;;5077080;28;20044;-70
2023/09/28 06:31:36;;;;;;;7.03;3.85;;;16.40;99.90;;;;;;5076400;28;20084;-69
2023/09/28 06:34:02;;;;;;;6.28;3.72;;;16.40;99.90;;;;;;5076212;28;20470;-69
2023/09/28 06:36:28;;;;;;;7.72;4.03;;;16.50;99.90;;;;;;5076385;28;20102;-69
2023/09/28 06:38:55;;;;;;;6.55;4.05;;;16.50;99.90;;;;;;5077576;28;20049;-70
2023/09/28 06:41:21;;;;;;;6.20;4.05;;;16.60;99.90;;;;;;5075893;28;20519;-69
2023/09/28 06:43:48;;;;;;;5.60;4.00;;;16.60;99.90;;;;;;5076131;28;20067;-69
2023/09/28 06:46:14;;;;;;;6.90;3.63;;;16.60;99.90;;;;;;5076129;28;20405;-69
2023/09/28 06:48:40;;;;;;;7.63;4.60;;;16.60;99.90;;;;;;5074909;28;20048;-69
2023/09/28 06:51:06;;;;;;;7.00;4.13;;;16.60;99.90;;;;;;5076101;28;20052;-70
2023/09/28 06:53:32;;;;;;;6.07;3.70;;;16.60;99.90;;;;;;5074848;28;20397;-70
2023/09/28 06:56:01;;;;;;;6.53;3.55;;;16.60;99.90;;;;;;5076070;28;20049;-70
2023/09/28 06:58:27;;;;;;;7.50;3.55;;;16.70;99.90;;;;;;5076019;28;20074;-69
2023/09/28 07:00:53;;;;;;;7.80;4.03;;;16.70;99.90;;;;;;5075943;28;20429;-70
2023/09/28 07:03:19;;;;;;;8.02;3.42;;;16.80;99.90;;;;;;5075930;28;20186;-70
2023/09/28 07:05:46;;;;;;;7.38;3.42;;;16.80;99.90;;;;;;5075872;28;20416;-69
2023/09/28 07:08:12;;;;;;;9.48;3.60;;;16.80;99.90;;;;;;5075098;28;20052;-70
2023/09/28 07:10:38;;;;;;;5.93;2.95;;;16.80;99.90;;;;;;5075913;28;20040;-69
2023/09/28 07:13:05;;;;;;;7.88;3.42;;;16.80;99.90;;;;;;5075830;28;20093;-69
2023/09/28 07:15:32;;;;;;;7.15;3.20;;;16.90;99.90;;;;;;5074248;28;20052;-69
2023/09/28 07:17:59;;;;;;;6.57;3.35;;;16.90;99.90;;;;;;5075994;28;20112;-69
2023/09/28 07:20:26;;;;;;;9.75;3.95;;;16.90;99.90;;;;;;5075575;28;20052;-69
2023/09/28 07:22:52;;;;;;;8.98;3.50;;;16.90;99.90;;;;;;5074687;28;20044;-69
2023/09/28 07:25:19;;;;;;;8.63;2.95;;;17.00;99.90;;;;;;5075854;28;20137;-69
2023/09/28 07:27:49;;;;;;;9.90;3.42;;;17.00;99.90;;;;;;5075506;28;20079;-69
2023/09/28 07:30:15;;;;;;;6.57;3.10;;;17.10;99.90;;;;;;5074291;28;20123;-69
2023/09/28 07:32:41;;;;;;;7.38;2.90;;;17.10;99.90;;;;;;5075874;28;20086;-68
2023/09/28 07:35:11;;;;;;;8.88;3.20;;;17.20;99.90;;;;;;5075280;28;20084;-70
2023/09/28 07:37:38;;;;;;;7.22;2.75;;;17.20;99.90;;;;;;5075186;28;20141;-69
2023/09/28 07:40:10;;;;;;;6.13;2.67;;;17.30;99.90;;;;;;5075212;28;20102;-68
2023/09/28 07:42:36;;;;;;;8.32;3.10;;;17.30;99.90;;;;;;5075749;28;20032;-69
2023/09/28 07:45:02;;;;;;;9.73;3.05;;;17.40;99.90;;;;;;5075572;28;20446;-69
2023/09/28 07:47:28;;;;;;;9.07;3.15;;;17.40;99.90;;;;;;5075010;28;20053;-68
2023/09/28 07:49:54;;;;;;;10.40;3.22;;;17.50;99.90;;;;;;5057426;28;20051;-68
2023/09/28 07:52:20;;;;;;;7.82;2.70;;;17.60;99.90;;;;;;5073659;28;20481;-69
2023/09/28 07:54:46;;;;;;;8.82;3.42;;;17.60;99.90;;;;;;5074816;28;20041;-68
2023/09/28 07:57:12;;;;;;;7.93;3.53;;;17.70;99.90;;;;;;5074802;28;20119;-69
2023/09/28 07:59:39;;;;;;;9.88;3.15;;;17.70;99.90;;;;;;5073816;28;20051;-69
2023/09/28 08:02:09;;;;;;;10.15;2.70;;;17.80;99.90;;;;;;5075147;28;20036;-68
2023/09/28 08:04:36;;;;;;;7.88;3.38;;;17.80;99.90;;;;;;5074674;28;20087;-68
2023/09/28 08:07:01;;;;;;;8.27;2.95;;;17.90;99.90;;;;;;5074627;28;20048;-71
2023/09/28 08:09:27;;;;;;;11.07;3.38;;;18.00;99.90;;;;;;5074529;28;20093;-70
2023/09/28 08:11:53;;;;;;;8.73;3.20;;;18.10;99.90;;;;;;5074433;28;20091;-68
2023/09/28 08:14:20;;;;;;;6.07;3.10;;;18.20;99.90;;;;;;5075049;28;20043;-68
2023/09/28 08:16:46;;;;;;;8.40;2.90;;;18.20;99.90;;;;;;5074427;28;20056;-68
2023/09/28 08:19:12;;;;;;;7.10;2.97;;;18.20;99.90;;;;;;5075105;28;20040;-68
2023/09/28 08:21:38;;;;;;;8.02;3.28;;;18.20;99.90;;;;;;5074211;28;20094;-68
2023/09/28 08:24:05;;;;;;;12.07;3.25;;;18.30;99.90;;;;;;5074343;28;20063;-68
2023/09/28 08:26:31;;;;;;;8.40;2.78;;;18.30;99.90;;;;;;5074206;28;20047;-68
2023/09/28 08:29:00;;;;;;;11.35;3.17;;;18.20;99.90;;;;;;5073773;28;20037;-68
2023/09/28 08:31:27;;;;;;;8.23;2.70;;;18.30;99.90;;;;;;5073131;28;20110;-68
2023/09/28 08:33:53;;;;;;;8.15;2.88;;;18.40;99.90;;;;;;5074349;28;20044;-68
2023/09/28 08:36:19;;;;;;;11.55;3.45;;;18.50;99.90;;;;;;5074115;28;20392;-69
2023/09/28 08:38:46;;;;;;;8.55;2.58;;;18.50;99.90;;;;;;5074052;28;20049;-68
2023/09/28 08:41:16;;;;;;;9.00;3.05;;;18.50;99.90;;;;;;5074865;28;20106;-67
2023/09/28 08:43:43;;;;;;;11.07;3.05;;;18.50;99.90;;;;;;5073862;28;20040;-68
2023/09/28 08:46:14;;;;;;;9.65;2.80;;;18.40;99.90;;;;;;5072737;28;20047;-69
2023/09/28 08:48:47;;;;;;;10.60;2.85;;;18.40;99.90;;;;;;5073988;28;20447;-68
2023/09/28 08:51:13;;;;;;;8.23;2.50;;;18.50;99.90;;;;;;5073835;28;20101;-68
2023/09/28 08:53:41;;;;;;;10.45;2.83;;;18.60;99.90;;;;;;5073681;28;20067;-68
2023/09/28 08:56:07;;;;;;;8.20;2.75;;;18.50;99.90;;;;;;5072475;28;20041;-67
2023/09/28 08:58:34;;;;;;;7.43;2.60;;;18.50;99.90;;;;;;5072476;28;20128;-67
2023/09/28 09:01:01;;;;;;;12.43;3.10;;;18.40;99.90;;;;;;5074094;28;20055;-67
2023/09/28 09:03:28;;;;;;;11.45;3.30;;;18.40;99.90;;;;;;5073546;28;20124;-68
2023/09/28 09:05:56;;;;;;;10.65;2.92;;;18.40;99.90;;;;;;5074429;28;20044;-67
2023/09/28 09:08:24;;;;;;;10.63;3.00;;;18.40;99.90;;;;;;5073968;28;20385;-69
2023/09/28 09:10:53;;;;;;;13.18;2.55;;;18.50;99.90;;;;;;5072885;28;20048;-67
2023/09/28 09:13:19;;;;;;;7.10;2.53;;;18.50;99.90;;;;;;5074338;28;20063;-67
2023/09/28 09:15:45;;;;;;;9.02;2.90;;;18.60;99.90;;;;;;5073964;28;20040;-69
2023/09/28 09:18:21;;;;;;;10.30;3.17;;;18.60;99.90;;;;;;5073800;28;20103;-68
2023/09/28 09:20:48;;;;;;;10.98;3.00;;;18.60;99.90;;;;;;5072264;28;20106;-69
2023/09/28 09:23:15;;;;;;;9.80;2.97;;;18.60;99.90;;;;;;5073849;28;20117;-69
2023/09/28 09:25:45;;;;;;;10.02;3.00;;;18.60;99.90;;;;;;5073894;28;20048;-68
2023/09/28 09:28:12;;;;;;;8.73;2.75;;;18.60;99.90;;;;;;5073549;28;20040;-68
2023/09/28 09:30:37;;;;;;;7.57;2.22;;;18.60;99.90;;;;;;5073483;28;20040;-68
2023/09/28 09:33:07;;;;;;;10.98;3.00;;;18.70;99.90;;;;;;5073387;28;20067;-67
2023/09/28 09:35:33;;;;;;;9.93;2.88;;;18.70;99.90;;;;;;5073482;28;20063;-68
2023/09/28 09:38:00;;;;;;;10.38;2.88;;;18.90;99.90;;;;;;5073372;28;20452;-68
2023/09/28 09:40:25;;;;;;;8.77;2.83;;;19.00;99.90;;;;;;5075678;28;20048;-66
2023/09/28 09:42:51;;;;;;;10.95;2.90;;;19.10;99.90;;;;;;5077399;28;20059;-70
2023/09/28 09:45:20;;;;;;;9.38;3.33;;;19.20;99.90;;;;;;5077633;28;20076;-68
2023/09/28 09:47:49;;;;;;;9.45;3.13;;;19.30;99.90;;;;;;5077257;28;20123;-69
2023/09/28 09:50:18;;;;;;;10.60;3.60;;;19.20;99.90;;;;;;5077266;28;20036;-68
2023/09/28 09:52:44;;;;;;;13.68;3.55;;;19.10;99.90;;;;;;5077075;28;20045;-69
2023/09/28 09:55:10;;;;;;;10.57;2.88;;;19.00;99.90;;;;;;5076990;28;20109;-69
2023/09/28 09:57:46;;;;;;;9.40;3.40;;;18.90;99.90;;;;;;5077435;28;20079;-70
2023/09/28 10:00:15;;;;;;;13.00;3.60;;;18.80;99.90;;;;;;5076833;28;20445;-69
2023/09/28 10:02:43;;;;;;;12.88;3.40;;;18.90;99.90;;;;;;5077131;28;20093;-67
2023/09/28 10:05:12;;;;;;;8.32;2.90;;;19.10;99.90;;;;;;5076676;28;20476;-68
2023/09/28 10:07:39;;;;;;;9.15;2.97;;;19.10;99.90;;;;;;5076549;28;20446;-68
2023/09/28 10:10:06;;;;;;;10.10;2.63;;;19.10;99.90;;;;;;5075667;28;20093;-67
2023/09/28 10:12:32;;;;;;;9.60;2.53;;;19.00;99.90;;;;;;5076757;28;20043;-68
2023/09/28 10:15:00;;;;;;;12.48;3.20;;;19.00;99.90;;;;;;5075538;28;20033;-68
2023/09/28 10:17:28;;;;;;;8.00;2.60;;;18.90;99.90;;;;;;5076757;28;20041;-68
2023/09/28 10:19:59;;;;;;;11.00;2.92;;;18.90;99.90;;;;;;5076673;28;20076;-68
2023/09/28 10:22:25;;;;;;;10.10;3.10;;;18.80;99.90;;;;;;5076637;28;20039;-68
2023/09/28 10:24:51;;;;;;;12.25;2.90;;;19.00;99.90;;;;;;5076267;28;20032;-67
2023/09/28 10:27:17;;;;;;;9.18;2.60;;;19.40;99.90;;;;;;5075428;28;20048;-67
2023/09/28 10:29:44;;;;;;;10.00;2.38;;;19.90;99.90;;;;;;5076471;28;20045;-68
2023/09/28 10:32:26;;;;;;;9.32;3.08;;;20.00;99.90;;;;;;5075182;28;20362;-68
2023/09/28 10:35:22;;;;;;;9.75;2.55;;;20.00;99.90;;;;;;5076907;28;20049;-67
2023/09/28 10:38:22;;;;;;;7.10;2.07;;;19.70;99.90;;;;;;5077055;28;20131;-68
2023/09/28 10:41:07;;;;;;;9.60;2.20;;;19.60;99.90;;;;;;5077204;28;20048;-67
2023/09/28 10:43:34;;;;;;;6.07;2.10;;;19.60;99.90;;;;;;5075462;28;20040;-67
2023/09/28 10:46:07;;;;;;;10.13;2.55;;;19.90;99.90;;;;;;5076189;28;20045;-71
2023/09/28 10:48:44;;;;;;;9.95;2.60;;;20.10;99.90;;;;;;5076252;28;20048;-69
2023/09/28 10:51:18;;;;;;;8.00;2.50;;;20.30;99.90;;;;;;5076023;28;20076;-70
2023/09/28 10:53:45;;;;;;;8.90;3.00;;;20.40;99.90;;;;;;5075989;28;20071;-70
2023/09/28 10:56:11;;;;;;;11.35;2.58;;;20.40;99.90;;;;;;5076532;28;20055;-69
2023/09/28 10:58:38;;;;;;;8.10;2.47;;;20.20;99.90;;;;;;5076601;28;20048;-70
2023/09/28 11:01:06;;;;;;;8.65;2.75;;;20.00;99.90;;;;;;5075973;28;20093;-69
2023/09/28 11:03:36;;;;;;;11.85;2.67;;;20.00;99.90;;;;;;5075916;28;20052;-69
2023/09/28 11:06:03;;;;;;;9.40;2.70;;;19.90;99.90;;;;;;5074701;28;20040;-69
2023/09/28 11:08:32;;;;;;;6.32;2.38;;;20.00;99.90;;;;;;5075816;28;20389;-70
2023/09/28 11:11:01;;;;;;;9.13;3.05;;;19.90;99.90;;;;;;5075785;28;20044;-69
2023/09/28 11:13:27;;;;;;;14.30;3.10;;;19.70;99.90;;;;;;5075366;28;20473;-69
2023/09/28 11:15:53;;;;;;;9.20;2.42;;;19.70;99.90;;;;;;5075713;28;20419;-69
2023/09/28 11:18:23;;;;;;;7.78;2.00;;;19.70;99.90;;;;;;5075627;28;20102;-68
2023/09/28 11:20:49;;;;;;;12.52;3.42;;;19.60;99.90;;;;;;5075275;28;20044;-68
2023/09/28 11:23:14;;;;;;;8.27;2.42;;;19.50;99.90;;;;;;5075351;28;20044;-68
2023/09/28 11:25:42;;;;;;;8.77;2.40;;;19.50;99.90;;;;;;5075971;28;20389;-68
2023/09/28 11:28:09;;;;;;;11.35;2.65;;;19.50;99.90;;;;;;5075374;28;20091;-69
2023/09/28 11:30:35;;;;;;;8.32;2.38;;;19.60;99.90;;;;;;5075347;28;20048;-67
2023/09/28 11:33:04;;;;;;;8.95;2.72;;;19.70;99.90;;;;;;5075193;28;20045;-68
2023/09/28 11:35:31;;;;;;;9.13;2.83;;;19.70;99.90;;;;;;5075304;28;20554;-67
2023/09/28 11:38:09;;;;;;;11.30;2.55;;;19.80;99.90;;;;;;5074176;28;20049;-69
2023/09/28 11:40:37;;;;;;;9.50;2.45;;;19.80;99.90;;;;;;5075266;28;20132;-67
2023/09/28 11:43:03;;;;;;;10.05;2.17;;;19.80;99.90;;;;;;5075010;28;20044;-69
2023/09/28 11:45:31;;;;;;;9.63;2.95;;;19.90;99.90;;;;;;5075540;28;20113;-69
2023/09/28 11:47:57;;;;;;;9.65;2.45;;;19.90;99.90;;;;;;5075696;28;20091;-68
2023/09/28 11:50:26;;;;;;;12.48;2.75;;;19.90;99.90;;;;;;5074924;28;20496;-67
2023/09/28 11:52:52;;;;;;;10.25;2.20;;;19.90;99.90;;;;;;5074796;28;20473;-67
2023/09/28 11:55:18;;;;;;;10.05;2.88;;;19.90;99.90;;;;;;5074850;28;20504;-67
2023/09/28 11:57:44;;;;;;;11.18;2.35;;;19.90;99.90;;;;;;5075081;28;20044;-68
2023/09/28 12:00:18;;;;;;;12.73;2.67;;;20.00;99.90;;;;;;5074695;28;20048;-68
2023/09/28 12:02:46;;;;;;;12.60;2.58;;;20.10;99.90;;;;;;5074523;28;20049;-68
2023/09/28 12:05:13;;;;;;;12.05;3.10;;;20.10;99.90;;;;;;5074790;28;20438;-69
2023/09/28 12:07:40;;;;;;;6.00;2.25;;;20.20;99.90;;;;;;5075177;28;20056;-68
2023/09/28 12:10:11;;;;;;;8.20;2.10;;;20.30;99.90;;;;;;5074445;28;20397;-67
2023/09/28 12:12:38;;;;;;;10.32;2.42;;;20.30;99.90;;;;;;5074444;28;20044;-68
2023/09/28 12:15:11;;;;;;;10.48;2.78;;;20.20;99.90;;;;;;5073580;28;20049;-67
2023/09/28 12:17:43;;;;;;;7.93;2.70;;;20.20;99.90;;;;;;5074233;28;20504;-68
2023/09/28 12:20:14;;;;;;;11.25;2.72;;;20.20;99.90;;;;;;5074290;28;20052;-68
2023/09/28 12:22:44;;;;;;;10.85;3.00;;;20.10;99.90;;;;;;5074170;28;20040;-69
2023/09/28 12:25:10;;;;;;;14.07;2.72;;;20.10;99.90;;;;;;5074181;28;20401;-69
2023/09/28 12:27:37;;;;;;;10.27;2.55;;;20.10;99.90;;;;;;5074236;28;20043;-70
2023/09/28 12:30:04;;;;;;;9.73;2.35;;;20.10;99.90;;;;;;5074702;28;20143;-67
2023/09/28 12:32:31;;;;;;;11.13;2.72;;;20.10;99.90;;;;;;5074328;28;20044;-69
2023/09/28 12:34:57;;;;;;;9.40;2.38;;;20.10;99.90;;;;;;5074128;28;20094;-68
2023/09/28 12:37:23;;;;;;;9.13;3.10;;;20.00;99.90;;;;;;5072805;28;20094;-68
2023/09/28 12:39:53;;;;;;;13.57;3.13;;;20.00;99.90;;;;;;5073826;28;20052;-68
2023/09/28 12:42:23;;;;;;;12.00;2.90;;;20.00;99.90;;;;;;5074289;28;20055;-68
2023/09/28 12:44:50;;;;;;;8.18;2.47;;;19.90;99.90;;;;;;5074263;28;20110;-69
2023/09/28 12:47:20;;;;;;;7.75;2.78;;;19.90;99.90;;;;;;5073911;28;20048;-69